createdAt,value
2022-12-09T00:01:18.262Z,21.70
2022-12-09T00:04:05.629Z,21.50
2022-12-09T00:06:53.165Z,21.67
2022-12-09T00:09:40.380Z,20.80
2022-12-09T00:12:27.591Z,20.70
2022-12-09T00:15:15.008Z,20.00
2022-12-09T00:18:02.168Z,21.67
2022-12-09T00:20:49.474Z,21.00
2022-12-09T00:23:36.827Z,21.50
2022-12-09T00:26:25.510Z,21.97
2022-12-09T00:29:13.305Z,21.00
2022-12-09T00:32:00.587Z,21.43
2022-12-09T00:34:49.055Z,21.23
2022-12-09T00:37:36.186Z,21.43
2022-12-09T00:40:23.550Z,23.40
2022-12-09T00:43:10.647Z,24.73
2022-12-09T00:45:58.388Z,23.70
2022-12-09T00:48:46.113Z,24.10
2022-12-09T00:51:33.667Z,26.17
2022-12-09T00:54:21.121Z,25.30
2022-12-09T00:57:08.418Z,24.67
2022-12-09T00:59:55.505Z,23.67
2022-12-09T01:02:42.874Z,22.20
2022-12-09T01:05:30.331Z,24.57
2022-12-09T01:08:17.686Z,24.93
2022-12-09T01:11:13.457Z,25.23
2022-12-09T01:14:03.098Z,24.13
2022-12-09T01:16:50.497Z,23.70
2022-12-09T01:19:39.329Z,24.17
2022-12-09T01:22:26.456Z,24.57
2022-12-09T01:25:14.069Z,24.83
2022-12-09T01:28:01.248Z,22.80
2022-12-09T01:30:53.067Z,22.33
2022-12-09T01:33:41.498Z,24.10
2022-12-09T01:36:30.446Z,22.40
2022-12-09T01:39:18.364Z,26.60
2022-12-09T01:42:06.361Z,24.07
2022-12-09T01:45:30.810Z,24.30
2022-12-09T01:48:25.728Z,24.73
2022-12-09T01:51:16.878Z,25.87
2022-12-09T01:54:04.508Z,24.83
2022-12-09T01:56:52.533Z,24.33
2022-12-09T01:59:40.520Z,26.00
2022-12-09T02:02:30.639Z,24.77
2022-12-09T02:05:20.324Z,26.67
2022-12-09T02:08:16.703Z,26.20
2022-12-09T02:11:10.987Z,23.77
2022-12-09T02:14:08.222Z,25.10
2022-12-09T02:17:10.650Z,26.23
2022-12-09T02:20:16.733Z,28.90
2022-12-09T02:23:16.395Z,25.10
2022-12-09T02:26:19.086Z,24.17
2022-12-09T02:29:24.308Z,26.13
2022-12-09T02:32:36.508Z,24.17
2022-12-09T02:35:43.965Z,24.60
2022-12-09T02:38:33.456Z,26.20
2022-12-09T02:41:26.328Z,24.90
2022-12-09T02:44:17.621Z,24.70
2022-12-09T02:47:07.423Z,26.30
2022-12-09T02:50:09.760Z,25.77
2022-12-09T02:53:02.045Z,23.13
2022-12-09T02:55:50.486Z,24.07
2022-12-09T02:58:38.001Z,25.20
2022-12-09T03:01:36.792Z,24.50
2022-12-09T03:04:27.926Z,25.80
2022-12-09T03:07:26.858Z,26.03
2022-12-09T03:10:31.124Z,26.40
2022-12-09T03:13:23.356Z,25.40
2022-12-09T03:16:37.621Z,23.60
2022-12-09T03:19:33.804Z,24.50
2022-12-09T03:22:26.034Z,25.37
2022-12-09T03:25:24.573Z,25.30
2022-12-09T03:28:32.097Z,25.53
2022-12-09T03:31:24.443Z,26.37
2022-12-09T03:34:17.084Z,24.90
2022-12-09T03:37:06.662Z,23.30
2022-12-09T03:39:55.995Z,24.83
2022-12-09T03:42:49.292Z,26.20
2022-12-09T03:45:37.121Z,24.93
2022-12-09T03:48:25.100Z,26.13
2022-12-09T03:51:43.258Z,23.83
2022-12-09T03:54:39.266Z,25.00
2022-12-09T03:57:29.209Z,24.63
2022-12-09T04:00:18.219Z,26.00
2022-12-09T04:03:07.815Z,25.10
2022-12-09T04:05:55.893Z,24.13
2022-12-09T04:08:43.388Z,23.00
2022-12-09T04:11:34.367Z,24.40
2022-12-09T04:14:22.362Z,23.10
2022-12-09T04:17:12.205Z,24.10
2022-12-09T04:19:59.452Z,26.07
2022-12-09T04:22:46.910Z,25.17
2022-12-09T04:25:34.103Z,25.17
2022-12-09T04:28:21.763Z,23.30
2022-12-09T04:31:13.782Z,24.50
2022-12-09T04:34:08.359Z,22.10
2022-12-09T04:36:56.750Z,22.80
2022-12-09T04:39:44.154Z,24.13
2022-12-09T04:42:31.451Z,24.80
2022-12-09T04:45:18.647Z,23.63
2022-12-09T04:48:06.872Z,25.30
2022-12-09T04:50:54.201Z,25.20
2022-12-09T04:53:42.003Z,25.13
2022-12-09T04:56:29.485Z,24.07
2022-12-09T04:59:16.963Z,23.60
2022-12-09T05:02:04.420Z,24.07
2022-12-09T05:04:51.721Z,23.27
2022-12-09T05:07:39.743Z,23.90
2022-12-09T05:10:27.286Z,24.37
2022-12-09T05:13:04.474Z,22.60
2022-12-09T05:15:51.535Z,21.63
2022-12-09T05:18:39.717Z,22.43
2022-12-09T05:21:28.100Z,22.63
2022-12-09T05:24:15.568Z,22.37
2022-12-09T05:27:03.270Z,21.00
2022-12-09T05:29:50.480Z,21.70
2022-12-09T05:32:37.853Z,22.67
2022-12-09T05:35:24.978Z,22.07
2022-12-09T05:38:12.831Z,21.03
2022-12-09T05:41:04.091Z,23.10
2022-12-09T05:43:51.949Z,22.60
2022-12-09T05:46:39.093Z,21.60
2022-12-09T05:49:26.888Z,24.40
2022-12-09T05:52:14.563Z,20.70
2022-12-09T05:55:05.374Z,19.43
2022-12-09T05:57:52.752Z,20.90
2022-12-09T06:00:40.275Z,21.53
2022-12-09T06:03:28.262Z,18.60
2022-12-09T06:06:17.843Z,22.90
2022-12-09T06:09:08.872Z,20.00
2022-12-09T06:11:56.339Z,18.13
2022-12-09T06:14:43.750Z,21.10
2022-12-09T06:17:30.871Z,20.30
2022-12-09T06:20:18.877Z,22.97
2022-12-09T06:23:06.607Z,21.90
2022-12-09T06:25:53.701Z,20.97
2022-12-09T06:28:41.089Z,21.00
2022-12-09T06:31:30.172Z,19.67
2022-12-09T06:34:17.482Z,20.37
2022-12-09T06:37:05.204Z,19.60
2022-12-09T06:39:52.218Z,18.00
2022-12-09T06:42:39.573Z,20.40
2022-12-09T06:45:26.993Z,18.10
2022-12-09T06:48:14.034Z,18.60
2022-12-09T06:51:02.034Z,16.50
2022-12-09T06:53:49.674Z,19.20
2022-12-09T06:56:37.332Z,18.70
2022-12-09T06:59:25.454Z,18.93
2022-12-09T07:02:13.371Z,17.00
2022-12-09T07:05:00.936Z,19.20
2022-12-09T07:07:52.398Z,19.00
2022-12-09T07:10:41.785Z,19.07
2022-12-09T07:13:30.062Z,18.20
2022-12-09T07:16:17.875Z,18.97
2022-12-09T07:19:05.639Z,19.03
2022-12-09T07:21:53.260Z,15.57
2022-12-09T07:24:41.288Z,18.93
2022-12-09T07:27:28.642Z,16.53
2022-12-09T07:30:16.264Z,16.57
2022-12-09T07:33:03.318Z,17.27
2022-12-09T07:35:53.896Z,15.80
2022-12-09T07:38:41.017Z,18.53
2022-12-09T07:41:29.122Z,17.30
2022-12-09T07:44:16.176Z,16.53
2022-12-09T07:47:03.364Z,15.13
2022-12-09T07:49:50.727Z,17.20
2022-12-09T07:52:37.820Z,16.90
2022-12-09T07:55:25.706Z,17.10
2022-12-09T07:58:12.947Z,15.37
2022-12-09T08:01:11.441Z,15.87
2022-12-09T08:03:59.479Z,17.07
2022-12-09T08:06:47.196Z,18.27
2022-12-09T08:09:34.900Z,17.20
2022-12-09T08:12:23.708Z,17.93
2022-12-09T08:15:11.511Z,16.97
2022-12-09T08:17:59.556Z,16.77
2022-12-09T08:20:47.034Z,16.17
2022-12-09T08:23:34.925Z,16.23
2022-12-09T08:26:24.820Z,15.73
2022-12-09T08:29:14.294Z,17.30
2022-12-09T08:32:02.244Z,18.03
2022-12-09T08:34:49.696Z,16.30
2022-12-09T08:37:37.024Z,16.57
2022-12-09T08:40:24.817Z,19.93
2022-12-09T08:43:12.715Z,16.70
2022-12-09T08:46:00.458Z,18.67
2022-12-09T08:48:48.161Z,17.37
2022-12-09T08:51:36.639Z,16.00
2022-12-09T08:54:24.436Z,16.77
2022-12-09T08:57:12.402Z,16.77
2022-12-09T08:59:59.806Z,17.63
2022-12-09T09:02:47.610Z,17.73
2022-12-09T09:05:35.174Z,19.00
2022-12-09T09:08:22.818Z,18.03
2022-12-09T09:11:12.531Z,16.83
2022-12-09T09:14:00.536Z,18.43
2022-12-09T09:16:48.153Z,19.23
2022-12-09T09:19:36.774Z,17.87
2022-12-09T09:22:24.222Z,16.93
2022-12-09T09:25:11.742Z,20.37
2022-12-09T09:27:59.757Z,17.60
2022-12-09T09:30:50.365Z,19.33
2022-12-09T09:33:38.110Z,18.10
2022-12-09T09:36:25.757Z,18.80
2022-12-09T09:39:13.806Z,19.27
2022-12-09T09:42:08.611Z,19.53
2022-12-09T09:44:58.298Z,18.00
2022-12-09T09:47:50.223Z,18.47
2022-12-09T09:50:49.548Z,18.60
2022-12-09T09:53:37.111Z,18.77
2022-12-09T09:56:45.954Z,18.40
2022-12-09T09:59:36.789Z,18.77
2022-12-09T10:02:45.893Z,19.20
2022-12-09T10:05:38.437Z,18.57
2022-12-09T10:08:48.671Z,20.03
2022-12-09T10:11:52.834Z,20.23
2022-12-09T10:15:05.249Z,18.53
2022-12-09T10:17:58.135Z,18.37
2022-12-09T10:20:46.127Z,17.80
2022-12-09T10:23:33.446Z,18.87
2022-12-09T10:26:32.792Z,17.87
2022-12-09T10:29:49.153Z,19.33
2022-12-09T10:32:37.806Z,17.10
2022-12-09T10:35:28.732Z,18.57
2022-12-09T10:38:19.075Z,17.30
2022-12-09T10:41:15.907Z,19.77
2022-12-09T10:44:22.479Z,19.20
2022-12-09T10:47:27.112Z,19.77
2022-12-09T10:50:29.989Z,17.53
2022-12-09T10:53:17.343Z,17.80
2022-12-09T10:56:05.124Z,17.93
2022-12-09T10:59:17.256Z,18.20
2022-12-09T11:02:11.027Z,18.40
2022-12-09T11:05:26.506Z,18.40
2022-12-09T11:08:23.125Z,19.00
2022-12-09T11:11:11.113Z,18.87
2022-12-09T11:13:58.470Z,19.07
2022-12-09T11:16:45.733Z,19.60
2022-12-09T11:19:39.054Z,16.90
2022-12-09T11:22:40.314Z,16.60
2022-12-09T11:25:31.928Z,15.40
2022-12-09T11:28:19.563Z,15.50
2022-12-09T11:31:28.927Z,15.60
2022-12-09T11:34:26.150Z,16.30
2022-12-09T11:37:13.673Z,17.67
2022-12-09T11:40:00.724Z,14.80
2022-12-09T11:42:53.716Z,15.33
2022-12-09T11:45:45.606Z,16.30
2022-12-09T11:48:40.106Z,15.67
2022-12-09T11:51:34.520Z,15.73
2022-12-09T11:54:40.234Z,14.60
2022-12-09T11:57:47.186Z,13.93
2022-12-09T12:00:42.770Z,14.07
2022-12-09T12:03:46.307Z,14.83
2022-12-09T12:06:43.587Z,14.57
2022-12-09T12:09:47.684Z,14.50
2022-12-09T12:13:00.276Z,16.47
2022-12-09T12:16:13.298Z,14.23
2022-12-09T12:19:09.636Z,15.27
2022-12-09T12:22:17.428Z,14.93
2022-12-09T12:25:25.666Z,15.17
2022-12-09T12:28:38.737Z,16.23
2022-12-09T12:31:38.015Z,15.47
2022-12-09T12:34:46.802Z,16.10
2022-12-09T12:38:10.587Z,17.17
2022-12-09T12:41:18.579Z,14.90
2022-12-09T12:44:42.740Z,15.43
2022-12-09T12:47:32.667Z,15.47
2022-12-09T12:50:47.309Z,16.03
2022-12-09T12:53:46.407Z,15.17
2022-12-09T12:56:39.404Z,16.20
2022-12-09T12:59:37.573Z,15.17
2022-12-09T13:02:39.857Z,16.13
2022-12-09T13:05:40.819Z,16.40
2022-12-09T13:08:41.298Z,16.77
2022-12-09T13:12:06.353Z,16.17
2022-12-09T13:14:55.326Z,18.47
2022-12-09T13:17:44.385Z,15.83
2022-12-09T13:20:46.461Z,15.93
2022-12-09T13:23:58.378Z,15.30
2022-12-09T13:27:03.841Z,14.40
2022-12-09T13:30:26.855Z,16.40
2022-12-09T13:33:31.606Z,16.27
2022-12-09T13:36:18.626Z,13.63
2022-12-09T13:39:10.903Z,15.03
2022-12-09T13:42:16.849Z,13.80
2022-12-09T13:45:14.112Z,14.20
2022-12-09T13:48:17.030Z,13.90
2022-12-09T13:51:05.122Z,15.00
2022-12-09T13:54:02.581Z,14.03
2022-12-09T13:57:09.772Z,16.50
2022-12-09T14:00:01.712Z,16.00
2022-12-09T14:03:02.594Z,14.40
2022-12-09T14:05:52.424Z,15.47
2022-12-09T14:08:47.788Z,14.97
2022-12-09T14:11:37.445Z,16.07
2022-12-09T14:14:24.857Z,15.63
2022-12-09T14:17:19.859Z,16.00
2022-12-09T14:20:18.836Z,14.30
2022-12-09T14:23:09.874Z,14.80
2022-12-09T14:26:00.563Z,14.07
2022-12-09T14:28:52.978Z,13.30
2022-12-09T14:31:56.330Z,15.70
2022-12-09T14:34:43.840Z,14.90
2022-12-09T14:38:04.514Z,15.37
2022-12-09T14:41:06.634Z,16.63
2022-12-09T14:44:16.020Z,14.70
2022-12-09T14:47:23.412Z,17.20
2022-12-09T14:50:19.579Z,17.07
2022-12-09T14:53:19.017Z,18.87
2022-12-09T14:56:06.354Z,17.80
2022-12-09T14:58:59.550Z,17.00
2022-12-09T15:01:52.649Z,18.13
2022-12-09T15:04:46.169Z,18.77
2022-12-09T15:07:34.374Z,17.83
2022-12-09T15:10:30.878Z,15.53
2022-12-09T15:13:20.107Z,18.60
2022-12-09T15:16:14.268Z,18.17
2022-12-09T15:19:01.296Z,16.20
2022-12-09T15:21:49.543Z,17.00
2022-12-09T15:24:49.675Z,17.07
2022-12-09T15:27:37.926Z,15.77
2022-12-09T15:30:30.580Z,17.23
2022-12-09T15:33:20.064Z,18.00
2022-12-09T15:36:11.821Z,16.67
2022-12-09T15:39:21.261Z,18.37
2022-12-09T15:42:15.146Z,15.27
2022-12-09T15:45:16.720Z,15.93
2022-12-09T15:48:23.476Z,15.20
2022-12-09T15:51:19.251Z,15.77
2022-12-09T15:54:11.037Z,16.27
2022-12-09T15:57:01.436Z,16.47
2022-12-09T15:59:56.478Z,17.00
2022-12-09T16:02:45.744Z,18.97
2022-12-09T16:05:36.025Z,19.30
2022-12-09T16:08:43.033Z,17.60
2022-12-09T16:11:39.219Z,18.60
2022-12-09T16:14:39.915Z,18.87
2022-12-09T16:17:34.786Z,19.00
2022-12-09T16:20:32.902Z,19.17
2022-12-09T16:23:24.367Z,17.00
2022-12-09T16:26:27.130Z,17.27
2022-12-09T16:29:27.372Z,18.33
2022-12-09T16:32:17.590Z,17.77
2022-12-09T16:35:10.531Z,19.17
2022-12-09T16:37:57.401Z,18.77
2022-12-09T16:40:44.411Z,17.80
2022-12-09T16:43:32.767Z,16.67
2022-12-09T16:46:40.902Z,17.50
2022-12-09T16:49:28.010Z,17.10
2022-12-09T16:52:20.868Z,16.20
2022-12-09T16:55:20.321Z,14.80
2022-12-09T16:58:10.795Z,15.00
2022-12-09T17:00:59.358Z,17.13
2022-12-09T17:03:53.354Z,15.20
2022-12-09T17:06:40.441Z,16.80
2022-12-09T17:09:27.425Z,15.93
2022-12-09T17:14:44.787Z,17.77
2022-12-09T17:17:32.023Z,17.00
2022-12-09T17:20:18.956Z,17.70
2022-12-09T17:23:05.948Z,17.27
2022-12-09T17:26:01.126Z,18.83
2022-12-09T17:28:49.452Z,16.30
2022-12-09T17:31:36.607Z,16.37
2022-12-09T17:34:23.607Z,17.60
2022-12-09T17:37:11.380Z,17.97
2022-12-09T17:40:03.422Z,16.53
2022-12-09T17:42:51.381Z,17.83
2022-12-09T17:45:42.090Z,18.57
2022-12-09T17:48:31.326Z,18.20
2022-12-09T17:51:18.671Z,17.40
2022-12-09T17:54:05.979Z,17.20
2022-12-09T17:56:53.018Z,17.40
2022-12-09T17:59:40.289Z,18.50
2022-12-09T18:02:27.650Z,18.23
2022-12-09T18:05:14.840Z,17.40
2022-12-09T18:08:02.016Z,15.17
2022-12-09T18:10:49.041Z,17.63
2022-12-09T18:13:37.062Z,20.27
2022-12-09T18:16:24.216Z,18.03
2022-12-09T18:19:14.888Z,16.40
2022-12-09T18:22:02.754Z,18.83
2022-12-09T18:24:49.891Z,16.43
2022-12-09T18:27:36.882Z,16.17
2022-12-09T18:30:23.925Z,14.83
2022-12-09T18:33:10.984Z,17.33
2022-12-09T18:35:57.921Z,18.63
2022-12-09T18:38:45.410Z,15.73
2022-12-09T18:41:33.328Z,17.03
2022-12-09T18:44:20.627Z,15.33
2022-12-09T18:47:07.770Z,17.47
2022-12-09T18:49:57.688Z,18.67
2022-12-09T18:52:45.163Z,15.57
2022-12-09T18:55:32.445Z,18.13
2022-12-09T18:58:31.536Z,16.90
2022-12-09T19:01:30.208Z,15.80
2022-12-09T19:04:25.897Z,19.00
2022-12-09T19:07:14.147Z,18.80
2022-12-09T19:10:01.437Z,20.50
2022-12-09T19:12:52.656Z,24.50
2022-12-09T19:15:44.438Z,19.13
2022-12-09T19:18:31.962Z,17.37
2022-12-09T19:21:20.412Z,18.40
2022-12-09T19:24:11.436Z,18.33
2022-12-09T19:26:58.661Z,18.10
2022-12-09T19:29:45.841Z,21.13
2022-12-09T19:32:52.488Z,21.47
2022-12-09T19:35:40.148Z,21.03
2022-12-09T19:38:27.361Z,24.90
2022-12-09T19:41:14.547Z,26.00
2022-12-09T19:44:04.147Z,22.80
2022-12-09T19:46:51.262Z,25.27
2022-12-09T19:49:41.166Z,23.67
2022-12-09T19:52:28.379Z,23.90
2022-12-09T19:55:15.610Z,26.30
2022-12-09T19:58:03.919Z,23.47
2022-12-09T20:00:51.272Z,27.00
2022-12-09T20:03:40.650Z,28.00
2022-12-09T20:06:28.130Z,28.33
2022-12-09T20:09:19.712Z,26.77
2022-12-09T20:12:07.015Z,25.93
2022-12-09T20:14:54.247Z,27.17
2022-12-09T20:17:41.577Z,30.07
2022-12-09T20:20:28.760Z,28.30
2022-12-09T20:23:16.192Z,26.33
2022-12-09T20:26:09.339Z,24.97
2022-12-09T20:28:58.006Z,26.80
2022-12-09T20:31:45.171Z,25.87
2022-12-09T20:34:32.612Z,28.70
2022-12-09T20:37:19.996Z,26.23
2022-12-09T20:40:08.133Z,25.17
2022-12-09T20:42:55.471Z,25.13
2022-12-09T20:45:42.681Z,25.73
2022-12-09T20:48:30.043Z,24.03
2022-12-09T20:51:25.795Z,26.17
2022-12-09T20:54:13.724Z,25.10
2022-12-09T20:57:01.590Z,26.47
2022-12-09T20:59:48.767Z,27.30
2022-12-09T21:02:40.340Z,25.97
2022-12-09T21:05:27.489Z,27.27
2022-12-09T21:08:15.864Z,27.63
2022-12-09T21:11:08.873Z,27.00
2022-12-09T21:14:00.969Z,26.63
2022-12-09T21:16:50.600Z,28.10
2022-12-09T21:19:38.042Z,25.30
2022-12-09T21:22:25.364Z,27.40
2022-12-09T21:25:12.901Z,27.70
2022-12-09T21:28:00.074Z,26.30
2022-12-09T21:30:47.502Z,26.90
2022-12-09T21:33:35.496Z,26.50
2022-12-09T21:36:27.511Z,26.70
2022-12-09T21:39:16.580Z,26.40
2022-12-09T21:42:04.099Z,28.60
2022-12-09T21:44:51.413Z,27.37
2022-12-09T21:47:40.267Z,25.70
2022-12-09T21:50:27.397Z,27.20
2022-12-09T21:53:14.943Z,27.43
2022-12-09T21:56:04.364Z,29.10
2022-12-09T21:58:54.907Z,28.90
2022-12-09T22:01:42.930Z,26.53
2022-12-09T22:04:30.157Z,26.53
2022-12-09T22:07:17.383Z,29.90
2022-12-09T22:10:05.047Z,27.80
2022-12-09T22:12:52.876Z,28.67
2022-12-09T22:15:40.042Z,29.60
2022-12-09T22:18:27.130Z,27.47
2022-12-09T22:21:26.399Z,27.57
2022-12-09T22:24:15.173Z,25.97
2022-12-09T22:27:02.482Z,26.20
2022-12-09T22:29:49.866Z,28.37
2022-12-09T22:32:41.132Z,25.60
2022-12-09T22:35:30.107Z,27.03
2022-12-09T22:38:17.590Z,26.37
2022-12-09T22:41:06.705Z,24.77
2022-12-09T22:43:55.451Z,27.40
2022-12-09T22:46:43.004Z,26.53
2022-12-09T22:49:30.678Z,26.80
2022-12-09T22:52:18.010Z,26.60
2022-12-09T22:55:06.420Z,24.80
2022-12-09T22:57:53.565Z,27.60
2022-12-09T23:00:43.890Z,28.13
2022-12-09T23:03:31.186Z,25.67
2022-12-09T23:06:18.932Z,26.80
2022-12-09T23:09:08.555Z,24.70
2022-12-09T23:11:55.894Z,27.77
2022-12-09T23:14:43.236Z,27.30
2022-12-09T23:17:30.367Z,24.63
2022-12-09T23:20:17.839Z,24.73
2022-12-09T23:23:04.979Z,23.90
2022-12-09T23:25:52.087Z,27.47
2022-12-09T23:28:45.221Z,27.90
2022-12-09T23:31:35.340Z,27.57
2022-12-09T23:34:23.660Z,26.07
2022-12-09T23:37:11.044Z,25.27
2022-12-09T23:39:58.176Z,24.80
2022-12-09T23:42:45.592Z,26.47
2022-12-09T23:45:34.084Z,25.33
2022-12-09T23:48:21.190Z,28.77
2022-12-09T23:51:16.646Z,25.07
2022-12-09T23:54:06.433Z,23.40
2022-12-09T23:56:53.873Z,24.93
2022-12-09T23:59:41.062Z,26.13
